Time;durP1;ratioP1;P1;durP2;ratioP2;P2;SDS_P1;SDS_P2;PMS_P1;PMS_P2;Temp;Humidity;BMP_temperature;BMP_pressure;BME280_temperature;BME280_humidity;BME280_pressure;Samples;Min_cycle;Max_cycle;Signal;HPM_P1;HPM_P2
2023/09/05 00:02:18;;;;;;;11.77;6.37;;;18.60;99.90;;;;;;7303846;19;20558;-80
2023/09/05 00:04:44;;;;;;;11.97;6.50;;;18.50;99.90;;;;;;7281559;19;20196;-80
2023/09/05 00:07:11;;;;;;;11.00;6.03;;;18.50;99.90;;;;;;7279387;19;20205;-80
2023/09/05 00:09:36;;;;;;;12.10;6.63;;;18.50;99.90;;;;;;7283035;19;20190;-79
2023/09/05 00:12:04;;;;;;;9.93;6.40;;;18.50;99.90;;;;;;7280872;19;20188;-79
2023/09/05 00:14:30;;;;;;;10.03;6.40;;;18.40;99.90;;;;;;7282325;19;20211;-80
2023/09/05 00:16:55;;;;;;;11.27;6.17;;;18.50;99.90;;;;;;7281931;19;20715;-80
2023/09/05 00:19:21;;;;;;;13.00;6.60;;;18.50;99.90;;;;;;7298488;19;20183;-79
2023/09/05 00:21:47;;;;;;;12.37;6.40;;;18.50;99.90;;;;;;7291386;19;20196;-80
2023/09/05 00:24:37;;;;;;;14.60;6.47;;;18.60;99.90;;;;;;7280768;19;20868;-81
2023/09/05 00:27:11;;;;;;;10.67;6.60;;;18.50;99.90;;;;;;7177338;19;2004463;-79
2023/09/05 00:29:39;;;;;;;11.93;6.50;;;18.50;99.90;;;;;;7282287;19;20259;-80
2023/09/05 00:32:06;;;;;;;10.27;6.33;;;18.60;99.90;;;;;;7281109;19;20207;-79
2023/09/05 00:34:36;;;;;;;11.43;6.73;;;18.60;99.90;;;;;;7280355;19;20677;-79
2023/09/05 00:37:03;;;;;;;13.07;6.40;;;18.50;99.90;;;;;;7281398;19;20189;-79
2023/09/05 00:39:30;;;;;;;11.07;6.53;;;18.50;99.90;;;;;;7281750;19;20185;-79
2023/09/05 00:41:57;;;;;;;10.00;6.80;;;18.50;99.90;;;;;;7280920;19;20204;-80
2023/09/05 00:44:23;;;;;;;11.80;6.70;;;18.50;99.90;;;;;;7283907;19;20204;-78
2023/09/05 00:46:49;;;;;;;10.53;6.30;;;18.50;99.90;;;;;;7302354;19;20279;-79
2023/09/05 00:49:16;;;;;;;9.90;6.23;;;18.50;99.90;;;;;;7280608;19;20814;-79
2023/09/05 00:51:50;;;;;;;12.03;6.63;;;18.50;99.90;;;;;;7279978;19;20637;-78
2023/09/05 00:54:18;;;;;;;9.77;6.20;;;18.40;99.90;;;;;;7279724;19;20209;-79
2023/09/05 00:56:44;;;;;;;13.00;6.60;;;18.30;99.90;;;;;;7281759;19;20197;-78
2023/09/05 00:59:11;;;;;;;12.37;6.57;;;18.30;99.90;;;;;;7280317;19;20197;-79
2023/09/05 01:01:37;;;;;;;16.70;6.50;;;18.30;99.90;;;;;;7279980;19;20202;-79
2023/09/05 01:04:04;;;;;;;12.00;6.97;;;18.30;99.90;;;;;;7280731;19;20264;-80
2023/09/05 01:07:00;;;;;;;11.73;6.80;;;18.30;99.90;;;;;;7280341;19;20197;-79
2023/09/05 01:09:44;;;;;;;15.37;6.53;;;18.30;99.90;;;;;;7178651;19;2004805;-79
2023/09/05 01:12:11;;;;;;;12.23;6.47;;;18.30;99.90;;;;;;7285924;19;20232;-79
2023/09/05 01:14:36;;;;;;;13.67;6.70;;;18.20;99.90;;;;;;7286817;19;20193;-78
2023/09/05 01:17:05;;;;;;;11.73;6.33;;;18.10;99.90;;;;;;7288278;19;20191;-79
2023/09/05 01:19:35;;;;;;;12.87;6.47;;;18.20;99.90;;;;;;7287248;19;20546;-79
2023/09/05 01:22:13;;;;;;;11.90;6.20;;;18.20;99.90;;;;;;7287511;19;20191;-79
2023/09/05 01:24:40;;;;;;;10.23;6.53;;;18.10;99.90;;;;;;7286692;19;20540;-79
2023/09/05 01:27:08;;;;;;;13.30;6.83;;;18.00;99.90;;;;;;7287542;19;20585;-79
2023/09/05 01:29:39;;;;;;;12.63;6.60;;;18.00;99.90;;;;;;7285672;19;20248;-79
2023/09/05 01:32:12;;;;;;;11.73;6.30;;;18.10;99.90;;;;;;7285886;19;20191;-79
2023/09/05 01:34:38;;;;;;;11.40;6.30;;;18.00;99.90;;;;;;7287496;19;20188;-79
2023/09/05 01:37:06;;;;;;;10.77;6.07;;;18.00;99.90;;;;;;7288245;19;20185;-79
2023/09/05 01:39:34;;;;;;;12.37;6.30;;;18.00;99.90;;;;;;7285145;19;20535;-78
2023/09/05 01:42:00;;;;;;;11.73;5.97;;;17.90;99.90;;;;;;7284994;19;20188;-79
2023/09/05 01:44:26;;;;;;;9.77;6.17;;;17.90;99.90;;;;;;7285028;19;20185;-80
2023/09/05 01:46:51;;;;;;;11.73;6.50;;;17.90;99.90;;;;;;7307572;19;20189;-79
2023/09/05 01:49:17;;;;;;;12.07;7.03;;;18.00;99.90;;;;;;7295339;19;20601;-80
2023/09/05 01:51:43;;;;;;;13.60;6.80;;;18.00;99.90;;;;;;7286016;19;20186;-79
2023/09/05 01:54:10;;;;;;;16.10;6.30;;;17.90;99.90;;;;;;7286010;19;20191;-79
2023/09/05 01:56:36;;;;;;;12.10;6.10;;;17.90;99.90;;;;;;7287152;19;20457;-80
2023/09/05 01:59:01;;;;;;;12.10;6.80;;;17.80;99.90;;;;;;7285855;19;20191;-79
2023/09/05 02:01:27;;;;;;;11.40;5.87;;;17.80;99.90;;;;;;7285501;19;20189;-78
2023/09/05 02:03:54;;;;;;;10.83;6.50;;;17.80;99.90;;;;;;7291550;19;20193;-79
2023/09/05 02:06:19;;;;;;;9.73;6.37;;;17.80;99.90;;;;;;7309180;19;20193;-80
2023/09/05 02:08:46;;;;;;;14.60;6.00;;;17.80;99.90;;;;;;7285363;19;20384;-79
2023/09/05 02:11:12;;;;;;;13.10;6.00;;;17.70;99.90;;;;;;7286844;19;20236;-79
2023/09/05 02:13:38;;;;;;;9.70;5.73;;;17.70;99.90;;;;;;7285968;19;20645;-78
2023/09/05 02:16:04;;;;;;;10.43;6.30;;;17.60;99.90;;;;;;7287050;19;20193;-79
2023/09/05 02:18:30;;;;;;;14.27;6.53;;;17.60;99.90;;;;;;7286161;19;20200;-79
2023/09/05 02:21:00;;;;;;;11.07;6.73;;;17.60;99.90;;;;;;7283998;19;20560;-80
2023/09/05 02:23:27;;;;;;;12.00;6.80;;;17.60;99.90;;;;;;7283245;19;20192;-79
2023/09/05 02:26:00;;;;;;;11.37;6.97;;;17.60;99.90;;;;;;7297885;19;20177;-79
2023/09/05 02:28:26;;;;;;;11.33;7.17;;;17.60;99.90;;;;;;7284706;19;20671;-78
2023/09/05 02:30:52;;;;;;;12.53;6.63;;;17.60;99.90;;;;;;7305912;19;20209;-80
2023/09/05 02:33:20;;;;;;;11.60;6.20;;;17.60;99.90;;;;;;7285688;19;20192;-79
2023/09/05 02:35:48;;;;;;;9.63;5.70;;;17.60;99.90;;;;;;7285516;19;20564;-79
2023/09/05 02:38:14;;;;;;;12.60;7.07;;;17.50;99.90;;;;;;7286658;19;20639;-79
2023/09/05 02:40:46;;;;;;;13.27;7.60;;;17.50;99.90;;;;;;7285014;19;20679;-79
2023/09/05 02:43:13;;;;;;;10.57;6.60;;;17.60;99.90;;;;;;7284172;19;20198;-79
2023/09/05 02:45:39;;;;;;;12.33;6.13;;;17.60;99.90;;;;;;7281217;19;20663;-79
2023/09/05 02:48:06;;;;;;;13.70;6.80;;;17.50;99.90;;;;;;7279663;19;20200;-80
2023/09/05 02:50:32;;;;;;;11.17;6.97;;;17.40;99.90;;;;;;7284231;19;20993;-79
2023/09/05 02:52:58;;;;;;;10.90;6.97;;;17.50;99.90;;;;;;7283054;19;20221;-79
2023/09/05 02:55:24;;;;;;;11.57;6.77;;;17.50;99.90;;;;;;7283804;19;20185;-79
2023/09/05 02:57:51;;;;;;;13.33;6.40;;;17.50;99.90;;;;;;7306050;19;20661;-79
2023/09/05 03:00:19;;;;;;;12.40;6.23;;;17.40;99.90;;;;;;7283988;19;20186;-79
2023/09/05 03:02:49;;;;;;;12.13;6.90;;;17.40;99.90;;;;;;7285273;19;20181;-80
2023/09/05 03:05:16;;;;;;;11.67;6.87;;;17.30;99.90;;;;;;7283686;19;20214;-80
2023/09/05 03:07:42;;;;;;;12.80;6.33;;;17.30;99.90;;;;;;7282774;19;20197;-79
2023/09/05 03:10:08;;;;;;;12.20;6.50;;;17.20;99.90;;;;;;7285035;19;20184;-78
2023/09/05 03:12:34;;;;;;;15.20;6.57;;;17.20;99.90;;;;;;7284245;19;20192;-79
2023/09/05 03:15:00;;;;;;;11.43;6.47;;;17.10;99.90;;;;;;7282432;19;20953;-79
2023/09/05 03:17:26;;;;;;;10.47;5.83;;;17.10;99.90;;;;;;7284054;19;20231;-79
2023/09/05 03:19:52;;;;;;;11.50;5.93;;;17.10;99.90;;;;;;7302227;19;20645;-79
2023/09/05 03:22:18;;;;;;;16.80;6.97;;;17.10;99.90;;;;;;7296808;19;20640;-80
2023/09/05 03:24:43;;;;;;;10.60;6.17;;;17.10;99.90;;;;;;7283466;19;20181;-79
2023/09/05 03:27:09;;;;;;;12.77;6.60;;;17.10;99.90;;;;;;7283497;19;20725;-79
2023/09/05 03:29:35;;;;;;;11.07;6.50;;;17.00;99.90;;;;;;7283027;19;20196;-79
2023/09/05 03:32:01;;;;;;;12.87;6.77;;;17.00;99.90;;;;;;7283663;19;20281;-79
2023/09/05 03:34:26;;;;;;;11.27;6.70;;;16.90;99.90;;;;;;7281540;19;20191;-79
2023/09/05 03:36:52;;;;;;;11.23;6.27;;;17.00;99.90;;;;;;7303861;19;20192;-79
2023/09/05 03:39:18;;;;;;;10.80;6.23;;;16.90;99.90;;;;;;7293934;19;20188;-79
2023/09/05 03:41:44;;;;;;;15.47;6.50;;;16.90;99.90;;;;;;7283316;19;20679;-81
2023/09/05 03:44:10;;;;;;;10.40;6.00;;;16.90;99.90;;;;;;7283144;19;20185;-79
2023/09/05 03:46:36;;;;;;;12.17;6.40;;;16.90;99.90;;;;;;7282154;19;20191;-78
2023/09/05 03:49:01;;;;;;;9.17;6.20;;;16.90;99.90;;;;;;7282428;19;20247;-80
2023/09/05 03:51:27;;;;;;;10.17;6.20;;;16.90;99.90;;;;;;7283010;19;20203;-80
2023/09/05 03:53:54;;;;;;;9.27;5.60;;;16.80;99.90;;;;;;7288205;19;20185;-79
2023/09/05 03:56:21;;;;;;;9.97;5.73;;;16.80;99.90;;;;;;7306173;19;20184;-80
2023/09/05 03:58:47;;;;;;;10.50;5.73;;;16.80;99.90;;;;;;7282970;19;20185;-80
2023/09/05 04:01:16;;;;;;;11.00;6.27;;;16.70;99.90;;;;;;7281203;19;20259;-79
2023/09/05 04:03:45;;;;;;;12.10;7.03;;;16.70;99.90;;;;;;7282323;19;20197;-79
2023/09/05 04:06:11;;;;;;;9.60;5.80;;;16.80;99.90;;;;;;7283098;19;20189;-79
2023/09/05 04:08:37;;;;;;;9.40;5.70;;;16.70;99.90;;;;;;7280738;19;20199;-78
2023/09/05 04:11:03;;;;;;;11.20;6.00;;;16.60;99.90;;;;;;7283031;19;20640;-79
2023/09/05 04:13:29;;;;;;;14.67;6.63;;;16.60;99.90;;;;;;7282598;19;20806;-79
2023/09/05 04:15:55;;;;;;;10.90;6.23;;;16.60;99.90;;;;;;7279364;19;20221;-79
2023/09/05 04:18:21;;;;;;;11.87;6.90;;;16.60;99.90;;;;;;7302900;19;20248;-79
2023/09/05 04:20:47;;;;;;;10.60;6.80;;;16.70;99.90;;;;;;7282591;19;20248;-79
2023/09/05 04:23:12;;;;;;;12.63;6.63;;;16.70;99.90;;;;;;7281659;19;20191;-78
2023/09/05 04:25:40;;;;;;;11.37;6.63;;;16.70;99.90;;;;;;7281777;19;20192;-79
2023/09/05 04:28:07;;;;;;;9.97;5.93;;;16.70;99.90;;;;;;7280770;19;20185;-79
2023/09/05 04:30:35;;;;;;;13.03;6.50;;;16.70;99.90;;;;;;7281374;19;20200;-79
2023/09/05 04:33:03;;;;;;;14.30;6.53;;;16.70;99.90;;;;;;7281941;19;20188;-80
2023/09/05 04:35:29;;;;;;;10.60;6.10;;;16.60;99.90;;;;;;7282165;19;20183;-79
2023/09/05 04:37:55;;;;;;;12.27;6.60;;;16.60;99.90;;;;;;7281634;19;20195;-78
2023/09/05 04:40:21;;;;;;;10.43;6.47;;;16.60;99.90;;;;;;7302099;19;20221;-79
2023/09/05 04:42:47;;;;;;;10.53;6.07;;;16.60;99.90;;;;;;7281279;19;20650;-81
2023/09/05 04:45:13;;;;;;;12.43;6.73;;;16.50;99.90;;;;;;7281237;19;20219;-82
2023/09/05 04:47:39;;;;;;;11.40;6.40;;;16.60;99.90;;;;;;7287773;19;20680;-80
2023/09/05 04:53:33;;;;;;;10.17;6.03;;;16.70;99.90;;;;;;7079923;19;2004629;-81
2023/09/05 04:56:03;;;;;;;12.60;6.30;;;16.70;99.90;;;;;;7287662;19;20192;-79
2023/09/05 04:58:32;;;;;;;12.77;6.17;;;16.60;99.90;;;;;;7289728;19;20222;-78
2023/09/05 05:01:02;;;;;;;12.03;7.13;;;16.60;99.90;;;;;;7290104;19;20197;-90
2023/09/05 05:03:32;;;;;;;12.27;6.53;;;16.70;99.90;;;;;;7287225;19;20192;-89
2023/09/05 05:06:02;;;;;;;14.07;6.07;;;16.80;99.90;;;;;;7285184;19;20521;-92
2023/09/05 05:08:30;;;;;;;14.40;7.40;;;16.80;99.90;;;;;;7286531;19;20193;-91
2023/09/05 05:10:56;;;;;;;15.43;7.43;;;16.80;99.90;;;;;;7289116;19;20693;-90
2023/09/05 05:13:24;;;;;;;13.23;7.23;;;16.80;99.90;;;;;;7310707;19;20201;-90
2023/09/05 05:15:59;;;;;;;13.50;7.20;;;16.70;99.90;;;;;;7302828;19;20183;-90
2023/09/05 05:18:47;;;;;;;12.87;7.47;;;16.70;99.90;;;;;;7268104;19;20197;-89
2023/09/05 05:21:13;;;;;;;13.77;6.87;;;16.70;99.90;;;;;;7288494;19;20246;-89
2023/09/05 05:23:40;;;;;;;11.37;6.40;;;16.70;99.90;;;;;;7288463;19;20196;-88
2023/09/05 05:26:06;;;;;;;13.30;6.20;;;16.70;99.90;;;;;;7287177;19;20200;-89
2023/09/05 05:28:32;;;;;;;12.93;6.60;;;16.70;99.90;;;;;;7285812;19;20197;-89
2023/09/05 05:30:57;;;;;;;11.63;6.13;;;16.80;99.90;;;;;;7288641;19;20194;-89
2023/09/05 05:33:23;;;;;;;12.77;6.83;;;16.90;99.90;;;;;;7298998;19;20189;-90
2023/09/05 05:35:55;;;;;;;16.57;6.77;;;16.90;99.90;;;;;;7312489;19;20591;-89
2023/09/05 05:38:21;;;;;;;11.40;6.20;;;17.10;99.90;;;;;;7267499;19;20196;-90
2023/09/05 05:40:47;;;;;;;10.10;5.63;;;17.60;99.90;;;;;;7288760;19;20188;-88
2023/09/05 05:43:13;;;;;;;11.87;5.60;;;18.80;99.90;;;;;;7285492;19;20182;-88
2023/09/05 05:45:39;;;;;;;11.63;5.57;;;20.20;99.90;;;;;;7283394;19;20193;-88
2023/09/05 05:48:07;;;;;;;9.97;4.97;;;21.20;99.90;;;;;;7285517;19;20192;-89
2023/09/05 05:50:33;;;;;;;11.27;5.23;;;21.90;99.90;;;;;;7284114;19;20218;-91
2023/09/05 05:52:59;;;;;;;11.37;5.20;;;22.80;99.90;;;;;;7282109;19;20198;-91
2023/09/05 05:55:25;;;;;;;11.87;5.23;;;23.40;99.90;;;;;;7285082;19;20187;-90
2023/09/05 05:57:51;;;;;;;13.63;5.07;;;23.90;99.90;;;;;;7308465;19;20182;-90
2023/09/05 06:00:17;;;;;;;9.30;4.40;;;24.40;99.90;;;;;;7302467;19;20238;-91
2023/09/05 06:02:43;;;;;;;10.17;4.70;;;24.60;99.90;;;;;;7286113;19;20716;-92
2023/09/05 06:05:09;;;;;;;11.80;4.50;;;25.20;99.90;;;;;;7286994;19;20189;-91
2023/09/05 06:07:35;;;;;;;10.47;3.90;;;25.50;99.90;;;;;;7286895;19;20201;-92
2023/09/05 06:10:01;;;;;;;15.67;4.77;;;25.70;99.90;;;;;;7287647;19;20189;-91
2023/09/05 06:12:27;;;;;;;11.20;4.10;;;26.00;99.90;;;;;;7286931;19;20263;-92
2023/09/05 06:14:53;;;;;;;11.02;3.90;;;26.40;99.90;;;;;;7303154;19;20198;-91
2023/09/05 06:17:19;;;;;;;10.70;4.15;;;26.70;99.90;;;;;;7301967;19;20180;-92
2023/09/05 06:19:45;;;;;;;10.13;4.00;;;26.20;99.90;;;;;;7287420;19;20189;-91
2023/09/05 06:22:11;;;;;;;10.60;4.38;;;25.60;99.90;;;;;;7286597;19;20191;-91
2023/09/05 06:24:36;;;;;;;10.10;3.88;;;25.00;99.90;;;;;;7287374;19;20221;-92
2023/09/05 06:27:02;;;;;;;19.37;4.50;;;24.20;99.90;;;;;;7286433;19;20189;-92
2023/09/05 06:29:28;;;;;;;23.00;4.87;;;23.70;99.90;;;;;;7293070;19;20189;-91
2023/09/05 06:31:54;;;;;;;21.70;4.80;;;23.20;99.90;;;;;;7293356;19;20185;-91
2023/09/05 06:34:20;;;;;;;23.90;4.90;;;22.80;99.90;;;;;;7312449;19;20187;-91
2023/09/05 06:36:46;;;;;;;14.37;4.63;;;22.40;99.90;;;;;;7287731;19;20794;-90
2023/09/05 06:39:12;;;;;;;19.57;4.23;;;22.20;99.90;;;;;;7286843;19;20173;-91
2023/09/05 06:41:40;;;;;;;11.13;3.80;;;22.20;99.90;;;;;;7285046;19;20199;-91
2023/09/05 06:44:05;;;;;;;7.07;3.20;;;23.00;99.90;;;;;;7285543;19;20207;-91
2023/09/05 06:46:35;;;;;;;8.70;2.70;;;24.00;99.90;;;;;;7287144;19;20260;-91
2023/09/05 06:49:02;;;;;;;7.50;2.40;;;25.50;99.90;;;;;;7286294;19;20532;-91
2023/09/05 06:51:30;;;;;;;8.25;2.60;;;27.70;99.90;;;;;;7286851;19;20189;-91
2023/09/05 06:53:58;;;;;;;7.25;2.83;;;29.40;99.90;;;;;;7286658;19;20184;-92
2023/09/05 06:56:25;;;;;;;6.63;2.33;;;31.00;99.90;;;;;;7286300;19;20181;-92
2023/09/05 06:58:51;;;;;;;5.22;2.50;;;31.70;99.90;;;;;;7308278;19;20185;-91
2023/09/05 07:01:17;;;;;;;9.32;2.45;;;31.60;99.70;;;;;;7283733;19;20570;-91
2023/09/05 07:03:43;;;;;;;13.63;2.80;;;32.40;98.80;;;;;;7286809;19;20202;-91
2023/09/05 07:06:08;;;;;;;12.60;2.92;;;33.50;95.00;;;;;;7298174;19;20224;-91
2023/09/05 07:08:34;;;;;;;8.15;2.50;;;34.90;91.60;;;;;;7283715;19;20557;-91
2023/09/05 07:11:00;;;;;;;6.53;2.70;;;35.10;85.00;;;;;;7285611;19;20541;-92
2023/09/05 07:13:26;;;;;;;7.05;2.47;;;35.10;83.50;;;;;;7286572;19;20188;-91
2023/09/05 07:15:52;;;;;;;5.05;2.53;;;36.00;80.70;;;;;;7308795;19;20196;-91
2023/09/05 07:18:18;;;;;;;7.22;2.55;;;35.80;76.70;;;;;;7286807;19;20193;-91
2023/09/05 07:20:44;;;;;;;5.47;2.45;;;36.20;79.00;;;;;;7285240;19;20200;-92
2023/09/05 07:23:11;;;;;;;8.05;2.47;;;35.70;74.90;;;;;;7285989;19;20193;-92
2023/09/05 07:25:38;;;;;;;6.00;2.28;;;35.60;73.40;;;;;;7282973;19;20204;-92
2023/09/05 07:28:04;;;;;;;4.45;2.30;;;35.60;74.20;;;;;;7284522;19;20197;-91
2023/09/05 07:30:34;;;;;;;4.47;2.00;;;35.50;71.70;;;;;;7283613;19;20759;-92
2023/09/05 07:33:00;;;;;;;6.80;2.17;;;35.80;71.40;;;;;;7281751;19;20185;-92
2023/09/05 07:35:25;;;;;;;4.82;2.28;;;36.20;70.20;;;;;;7283563;19;20252;-92
2023/09/05 07:37:51;;;;;;;8.43;2.42;;;36.20;68.40;;;;;;7303385;19;20318;-91
2023/09/05 07:40:17;;;;;;;10.80;2.70;;;36.00;69.20;;;;;;7283663;19;20189;-92
2023/09/05 07:42:43;;;;;;;9.50;2.28;;;36.20;69.70;;;;;;7282920;19;20214;-92
2023/09/05 07:45:10;;;;;;;5.47;2.10;;;35.40;68.20;;;;;;7282238;19;20312;-92
2023/09/05 07:47:36;;;;;;;7.63;2.30;;;35.30;69.20;;;;;;7282603;19;20193;-91
2023/09/05 07:50:02;;;;;;;6.00;2.15;;;36.00;69.60;;;;;;7281311;19;20572;-91
2023/09/05 07:52:28;;;;;;;7.55;2.15;;;36.00;67.30;;;;;;7281603;19;20196;-91
2023/09/05 07:54:54;;;;;;;9.25;2.50;;;36.20;67.60;;;;;;7290805;19;20189;-91
2023/09/05 07:57:19;;;;;;;5.18;2.40;;;36.50;67.40;;;;;;7303747;19;20204;-91
2023/09/05 07:59:45;;;;;;;3.75;1.95;;;35.60;66.10;;;;;;7281742;19;20188;-91
2023/09/05 08:02:11;;;;;;;5.63;2.03;;;35.50;67.80;;;;;;7280140;19;20192;-92
2023/09/05 08:04:38;;;;;;;6.15;2.42;;;35.50;67.40;;;;;;7282129;19;20185;-91
2023/09/05 08:07:06;;;;;;;2.97;2.00;;;35.50;67.00;;;;;;7281329;19;20201;-92
2023/09/05 08:09:33;;;;;;;6.65;2.13;;;36.30;67.70;;;;;;7281910;19;20253;-91
2023/09/05 08:12:01;;;;;;;4.15;1.90;;;36.50;64.30;;;;;;7296348;19;20650;-91
2023/09/05 08:14:27;;;;;;;4.53;2.03;;;36.10;65.30;;;;;;7281686;19;20204;-92
2023/09/05 08:16:53;;;;;;;6.50;2.20;;;37.10;65.40;;;;;;7298650;19;20220;-91
2023/09/05 08:19:19;;;;;;;5.43;2.28;;;36.40;64.20;;;;;;7298585;19;20177;-91
2023/09/05 08:21:45;;;;;;;7.85;2.20;;;35.80;65.30;;;;;;7288282;19;20197;-92
2023/09/05 08:24:10;;;;;;;5.45;2.28;;;36.00;66.00;;;;;;7289982;19;20192;-92
2023/09/05 08:26:37;;;;;;;6.35;2.10;;;36.50;66.80;;;;;;7287488;19;20667;-92
2023/09/05 08:29:03;;;;;;;4.63;2.00;;;38.10;63.20;;;;;;7288171;19;20252;-92
2023/09/05 08:31:32;;;;;;;4.97;2.03;;;37.70;63.30;;;;;;7291016;19;20191;-91
2023/09/05 08:33:59;;;;;;;3.65;1.95;;;37.80;62.90;;;;;;7287583;19;20673;-91
2023/09/05 08:36:25;;;;;;;4.80;2.00;;;38.40;61.70;;;;;;7288885;19;20179;-92
2023/09/05 08:38:50;;;;;;;4.15;2.00;;;38.00;60.60;;;;;;7309717;19;20616;-91
2023/09/05 08:41:17;;;;;;;3.90;1.90;;;36.80;62.60;;;;;;7287481;19;20193;-91
2023/09/05 08:43:44;;;;;;;4.03;2.00;;;37.50;62.30;;;;;;7288640;19;20634;-92
2023/09/05 08:46:12;;;;;;;6.85;2.25;;;37.00;63.90;;;;;;7287631;19;20188;-92
2023/09/05 08:48:37;;;;;;;6.10;2.10;;;36.90;63.20;;;;;;7285800;19;20222;-92
2023/09/05 08:51:07;;;;;;;5.70;2.38;;;37.20;63.10;;;;;;7287743;19;20646;-92
2023/09/05 08:53:42;;;;;;;5.05;2.10;;;37.00;62.50;;;;;;7286755;19;20277;-91
2023/09/05 08:56:08;;;;;;;9.57;2.17;;;36.30;63.70;;;;;;7285587;19;20195;-91
2023/09/05 08:58:35;;;;;;;5.43;2.13;;;35.50;63.70;;;;;;7287324;19;20193;-91
2023/09/05 09:01:01;;;;;;;4.93;2.03;;;34.70;66.00;;;;;;7286791;19;20203;-90
2023/09/05 09:03:26;;;;;;;4.45;2.10;;;33.90;65.90;;;;;;7283650;19;20536;-92
2023/09/05 09:05:52;;;;;;;6.95;2.30;;;34.30;68.00;;;;;;7308697;19;20252;-91
2023/09/05 09:08:19;;;;;;;8.00;2.15;;;35.50;66.20;;;;;;7286419;19;20180;-91
2023/09/05 09:11:05;;;;;;;3.50;1.80;;;36.10;66.00;;;;;;7286650;19;20197;-91
2023/09/05 09:13:31;;;;;;;4.40;1.95;;;37.10;64.00;;;;;;7182504;19;2004495;-91
2023/09/05 09:15:58;;;;;;;6.35;2.17;;;38.50;62.70;;;;;;7287795;19;20195;-92
2023/09/05 09:18:25;;;;;;;6.68;2.00;;;37.80;60.50;;;;;;7312805;19;20199;-92
2023/09/05 09:20:51;;;;;;;6.38;1.90;;;37.70;62.10;;;;;;7316683;19;20238;-91
2023/09/05 09:23:25;;;;;;;3.13;1.90;;;38.00;62.80;;;;;;7298460;19;20189;-92
2023/09/05 09:25:51;;;;;;;7.28;2.38;;;36.90;62.60;;;;;;7299927;19;20197;-92
2023/09/05 09:28:37;;;;;;;5.22;2.15;;;34.70;65.10;;;;;;7285717;19;20213;-91
2023/09/05 09:31:13;;;;;;;5.03;2.58;;;33.20;68.30;;;;;;7182842;19;2004420;-91
2023/09/05 09:33:40;;;;;;;6.22;2.50;;;32.00;71.00;;;;;;7287307;19;20200;-91
2023/09/05 09:36:11;;;;;;;3.67;2.03;;;31.20;75.00;;;;;;7286048;19;20192;-91
2023/09/05 09:38:38;;;;;;;4.97;2.15;;;30.80;77.80;;;;;;7286051;19;20188;-91
2023/09/05 09:41:06;;;;;;;5.13;2.50;;;30.30;78.70;;;;;;7285167;19;20217;-91
2023/09/05 09:43:34;;;;;;;8.00;2.42;;;30.00;81.30;;;;;;7286241;19;20192;-90
2023/09/05 09:46:03;;;;;;;5.57;2.38;;;30.00;81.50;;;;;;7286371;19;20197;-91
2023/09/05 09:48:30;;;;;;;8.70;2.50;;;30.60;81.50;;;;;;7285079;19;20660;-91
2023/09/05 09:50:58;;;;;;;4.68;2.30;;;31.70;79.50;;;;;;7284995;19;20282;-91
2023/09/05 09:53:34;;;;;;;6.85;2.38;;;33.40;75.10;;;;;;7292865;19;20231;-92
2023/09/05 09:56:07;;;;;;;6.20;2.30;;;34.40;72.50;;;;;;7284649;19;20208;-91
2023/09/05 09:58:34;;;;;;;5.72;2.17;;;34.50;72.00;;;;;;7286436;19;20244;-91
2023/09/05 10:01:02;;;;;;;4.45;2.10;;;36.60;70.90;;;;;;7284903;19;20185;-92
2023/09/05 10:03:28;;;;;;;5.35;2.28;;;37.00;67.40;;;;;;7284077;19;20195;-91
2023/09/05 10:05:55;;;;;;;3.80;2.20;;;37.20;65.10;;;;;;7295362;19;20189;-92
2023/09/05 10:08:21;;;;;;;3.72;2.33;;;36.60;65.30;;;;;;7305764;19;20653;-91
2023/09/05 10:10:48;;;;;;;6.18;2.50;;;36.10;66.50;;;;;;7284305;19;20707;-91
2023/09/05 10:13:15;;;;;;;3.88;2.10;;;36.10;67.50;;;;;;7285236;19;20190;-91
2023/09/05 10:15:42;;;;;;;6.18;2.30;;;37.00;68.80;;;;;;7285212;19;20193;-92
2023/09/05 10:18:12;;;;;;;5.75;2.10;;;38.50;66.80;;;;;;7282494;19;20197;-92
2023/09/05 10:20:40;;;;;;;5.05;2.00;;;39.50;62.00;;;;;;7284785;19;20196;-91
2023/09/05 10:23:06;;;;;;;4.03;2.10;;;39.60;62.30;;;;;;7300723;19;20227;-91
2023/09/05 10:25:36;;;;;;;5.38;2.28;;;39.70;61.50;;;;;;7283685;19;20189;-91
2023/09/05 10:28:03;;;;;;;5.22;1.90;;;39.60;61.10;;;;;;7283282;19;20318;-91
2023/09/05 10:30:29;;;;;;;6.85;2.35;;;39.00;61.80;;;;;;7283435;19;20192;-91
2023/09/05 10:32:57;;;;;;;3.67;2.03;;;38.70;61.00;;;;;;7287347;19;20184;-92
2023/09/05 10:35:23;;;;;;;5.10;2.20;;;38.50;62.20;;;;;;7299340;19;20671;-92
2023/09/05 10:38:01;;;;;;;5.82;2.30;;;38.80;60.80;;;;;;7300379;19;20196;-91
2023/09/05 10:40:38;;;;;;;3.97;1.90;;;38.30;62.50;;;;;;7262344;19;20192;-92
2023/09/05 10:43:06;;;;;;;4.45;2.13;;;38.00;62.20;;;;;;7281897;19;20209;-92
2023/09/05 10:45:38;;;;;;;6.00;2.50;;;37.70;61.70;;;;;;7283181;19;20181;-91
2023/09/05 10:48:12;;;;;;;5.53;2.45;;;37.50;63.30;;;;;;7282179;19;20551;-91
2023/09/05 10:51:13;;;;;;;5.68;2.17;;;37.70;63.30;;;;;;7283715;19;20192;-92
2023/09/05 10:53:46;;;;;;;6.30;2.08;;;37.10;64.40;;;;;;7180556;19;2004453;-91
2023/09/05 10:56:43;;;;;;;4.57;2.05;;;37.10;64.40;;;;;;7283045;19;20181;-92
2023/09/05 10:59:26;;;;;;;4.13;2.33;;;37.10;65.60;;;;;;7181584;19;2004639;-90
2023/09/05 11:01:54;;;;;;;7.45;2.38;;;37.60;64.40;;;;;;7283342;19;20787;-92
2023/09/05 11:04:34;;;;;;;4.30;2.08;;;38.40;64.50;;;;;;7317662;19;20829;-84
2023/09/05 11:07:03;;;;;;;6.93;2.58;;;38.20;62.30;;;;;;7316447;19;20648;-84
2023/09/05 11:09:38;;;;;;;4.63;2.22;;;38.50;63.60;;;;;;7315845;19;20243;-79
2023/09/05 11:12:06;;;;;;;7.45;2.47;;;38.70;62.60;;;;;;7314399;19;20188;-80
2023/09/05 11:14:33;;;;;;;5.75;2.28;;;39.40;62.70;;;;;;7313487;19;20188;-80
2023/09/05 11:17:00;;;;;;;5.10;2.60;;;39.80;59.50;;;;;;7313449;19;20201;-79
2023/09/05 11:19:40;;;;;;;8.98;2.53;;;39.10;60.00;;;;;;7315400;19;20256;-84
2023/09/05 11:22:11;;;;;;;5.43;2.30;;;38.70;60.60;;;;;;7315212;19;20561;-84
2023/09/05 11:24:45;;;;;;;4.55;2.47;;;38.50;61.70;;;;;;7314948;19;20192;-84
2023/09/05 11:27:11;;;;;;;5.57;2.40;;;38.20;61.70;;;;;;7315321;19;20307;-84
2023/09/05 11:29:39;;;;;;;5.60;2.30;;;37.90;63.40;;;;;;7313983;19;20187;-79
2023/09/05 11:32:12;;;;;;;4.68;2.17;;;37.60;63.50;;;;;;7315010;19;20188;-79
2023/09/05 11:34:43;;;;;;;5.20;2.47;;;37.50;63.80;;;;;;7315732;19;20256;-80
2023/09/05 11:37:13;;;;;;;6.55;2.50;;;37.20;62.70;;;;;;7314902;19;20691;-80
2023/09/05 11:39:39;;;;;;;5.22;2.38;;;37.20;63.20;;;;;;7316493;19;20260;-80
2023/09/05 11:42:18;;;;;;;5.55;2.47;;;37.50;63.40;;;;;;7312719;19;20252;-80
2023/09/05 11:44:44;;;;;;;5.18;2.40;;;37.00;63.80;;;;;;7316288;19;20181;-84
2023/09/05 11:47:12;;;;;;;10.15;6.63;;;37.00;64.70;;;;;;7318437;19;20654;-80
2023/09/05 11:49:39;;;;;;;5.85;2.58;;;37.10;64.20;;;;;;7315286;19;20263;-80
2023/09/05 11:52:05;;;;;;;6.00;2.28;;;37.40;63.90;;;;;;7313599;19;20571;-80
2023/09/05 11:54:32;;;;;;;8.77;6.32;;;37.90;64.40;;;;;;7315904;19;20662;-84
2023/09/05 11:56:59;;;;;;;5.55;2.20;;;38.10;63.80;;;;;;7314999;19;20201;-84
2023/09/05 11:59:25;;;;;;;6.65;2.22;;;37.60;64.60;;;;;;7316783;19;20729;-84
2023/09/05 12:01:52;;;;;;;6.00;2.08;;;37.90;66.50;;;;;;7336104;19;20188;-84
2023/09/05 12:04:18;;;;;;;6.72;2.40;;;39.10;62.70;;;;;;7315255;19;20241;-84
2023/09/05 12:06:51;;;;;;;6.53;2.38;;;38.70;63.10;;;;;;7314585;19;20623;-84
2023/09/05 12:09:18;;;;;;;4.57;2.40;;;38.80;62.40;;;;;;7313430;19;20560;-84
2023/09/05 12:11:44;;;;;;;5.18;2.40;;;39.40;62.40;;;;;;7311044;19;20535;-84
2023/09/05 12:14:10;;;;;;;6.53;2.30;;;39.10;63.10;;;;;;7305945;19;20260;-84
2023/09/05 12:16:36;;;;;;;6.95;2.15;;;38.90;62.00;;;;;;7284656;19;20185;-85
2023/09/05 12:19:02;;;;;;;3.13;2.10;;;39.50;61.70;;;;;;7288368;19;20196;-84
2023/09/05 12:21:45;;;;;;;4.00;2.30;;;40.20;63.50;;;;;;7286331;19;20268;-84
2023/09/05 12:24:23;;;;;;;4.28;2.25;;;41.20;61.50;;;;;;7283255;19;20189;-80
2023/09/05 12:26:50;;;;;;;5.13;2.60;;;40.90;58.70;;;;;;7286472;19;20189;-80
2023/09/05 12:29:21;;;;;;;5.38;2.30;;;39.80;59.90;;;;;;7286054;19;20188;-85
2023/09/05 12:31:49;;;;;;;8.48;2.50;;;38.90;62.10;;;;;;7285876;19;20313;-84
2023/09/05 12:34:15;;;;;;;5.95;2.38;;;38.70;63.10;;;;;;7286500;19;21383;-84
2023/09/05 12:36:42;;;;;;;5.57;2.40;;;38.10;63.20;;;;;;7284284;19;20193;-81
2023/09/05 12:39:08;;;;;;;6.30;2.70;;;37.50;67.10;;;;;;7284760;19;20189;-82
2023/09/05 12:41:34;;;;;;;5.57;2.40;;;36.90;65.00;;;;;;7287395;19;20662;-84
2023/09/05 12:44:01;;;;;;;5.47;2.55;;;36.20;66.10;;;;;;7287240;19;20188;-79
2023/09/05 12:46:29;;;;;;;5.28;2.30;;;35.40;68.70;;;;;;7284821;19;20195;-80
2023/09/05 12:48:55;;;;;;;6.55;2.50;;;35.10;69.50;;;;;;7284270;19;20252;-80